Time;durP1;ratioP1;P1;durP2;ratioP2;P2;SDS_P1;SDS_P2;PMS_P1;PMS_P2;Temp;Humidity;BMP_temperature;BMP_pressure;BME280_temperature;BME280_humidity;BME280_pressure;Samples;Min_cycle;Max_cycle;Signal;HPM_P1;HPM_P2
2021/03/27 00:01:25;;;;;;;57.72;35.85;;;;;;;;;;5014284;28;20476;-69
2021/03/27 00:04:09;;;;;;;57.95;36.65;;;205.40;1715.20;;;;;;5014302;28;20481;-73
2021/03/27 00:06:48;;;;;;;62.70;36.67;;;205.20;1740.80;;;;;;5014289;28;20017;-73
2021/03/27 00:09:40;;;;;;;46.63;32.60;;;205.10;1715.20;;;;;;5001471;28;20072;-68
2021/03/27 00:12:11;;;;;;;71.45;42.38;;;204.80;1766.40;;;;;;5014141;28;20105;-70
2021/03/27 00:14:52;;;;;;;55.38;33.30;;;204.80;1792.00;;;;;;5013963;28;20018;-71
2021/03/27 00:17:40;;;;;;;51.53;31.90;;;205.10;1715.20;;;;;;5014055;28;20113;-72
2021/03/27 00:20:40;;;;;;;56.50;34.65;;;205.20;1740.80;;;;;;5014034;28;20029;-72
2021/03/27 00:23:20;;;;;;;63.05;36.72;;;205.10;1740.80;;;;;;4953366;28;20086;-71
2021/03/27 00:25:57;;;;;;;57.75;35.90;;;205.20;1740.80;;;;;;4952742;28;20478;-71
2021/03/27 00:28:31;;;;;;;64.72;37.67;;;205.20;1715.20;;;;;;4953433;29;20027;-69
2021/03/27 00:31:02;;;;;;;60.58;37.10;;;205.10;1740.80;;;;;;4953346;29;20430;-70
2021/03/27 00:33:33;;;;;;;56.42;35.53;;;205.20;1715.20;;;;;;4953291;28;20046;-69
2021/03/27 00:36:05;;;;;;;53.17;35.97;;;205.40;1689.60;;;;;;4953218;29;20162;-72
2021/03/27 00:38:42;;;;;;;58.35;36.28;;;205.50;1664.00;;;;;;4953331;29;20577;-71
2021/03/27 00:41:12;;;;;;;59.45;39.17;;;205.30;1689.60;;;;;;4952730;28;20031;-72
2021/03/27 00:43:48;;;;;;;107.90;82.68;;;205.30;1689.60;;;;;;4939641;29;20027;-68
2021/03/27 00:46:17;;;;;;;113.63;80.55;;;205.00;1715.20;;;;;;4952805;28;20027;-68
2021/03/27 00:49:06;;;;;;;112.70;95.88;;;205.10;1715.20;;;;;;4953108;29;20031;-68
2021/03/27 00:51:48;;;;;;;58.28;39.00;;;204.90;1740.80;;;;;;4952268;28;20035;-68
2021/03/27 00:54:24;;;;;;;52.63;34.78;;;204.90;1740.80;;;;;;4952768;28;20043;-68
2021/03/27 00:57:13;;;;;;;45.88;30.65;;;204.90;1715.20;;;;;;4952951;29;20557;-68
2021/03/27 00:59:55;;;;;;;49.65;31.33;;;205.10;1689.60;;;;;;4989580;28;20046;-68
2021/03/27 01:02:21;;;;;;;52.08;34.92;;;205.20;1689.60;;;;;;4999685;28;20049;-70
2021/03/27 01:04:48;;;;;;;45.47;33.22;;;205.10;1689.60;;;;;;5013361;28;20026;-68
2021/03/27 01:07:14;;;;;;;51.38;33.47;;;205.30;1664.00;;;;;;5013314;28;20014;-69
2021/03/27 01:10:02;;;;;;;48.97;32.45;;;205.20;1689.60;;;;;;5013394;28;20384;-68
2021/03/27 01:12:39;;;;;;;44.95;29.77;;;205.00;1689.60;;;;;;5013098;28;20384;-67
2021/03/27 01:15:13;;;;;;;44.90;30.10;;;;;;;;;;5012929;28;20049;-67
2021/03/27 01:17:41;;;;;;;47.47;31.55;;;;;;;;;;4999439;28;20038;-69
2021/03/27 01:20:21;;;;;;;39.50;28.90;;;179.20;1920.00;;;;;;5012701;28;20041;-69
2021/03/27 01:22:49;;;;;;;49.85;32.00;;;179.40;1868.80;;;;;;4999347;28;20026;-68
2021/03/27 01:25:23;;;;;;;43.97;29.98;;;179.40;1868.80;;;;;;5012601;28;20083;-67
2021/03/27 01:28:06;;;;;;;45.38;29.75;;;179.30;1894.40;;;;;;5012744;28;20025;-68
2021/03/27 01:30:44;;;;;;;51.17;31.70;;;154.50;1945.60;;;;;;5012505;28;20022;-71
2021/03/27 01:33:25;;;;;;;47.13;30.98;;;154.50;1920.00;;;;;;5012484;28;20017;-69
2021/03/27 01:36:05;;;;;;;52.47;32.60;;;154.30;1971.20;;;;;;5011775;28;20040;-70
2021/03/27 01:38:36;;;;;;;46.65;29.35;;;179.20;1920.00;;;;;;5027317;28;20033;-71
2021/03/27 01:41:11;;;;;;;48.17;31.00;;;179.70;1843.20;;;;;;5012310;28;20022;-74
2021/03/27 01:43:59;;;;;;;50.50;30.60;;;179.60;1868.80;;;;;;5012382;28;20562;-70
2021/03/27 01:46:34;;;;;;;43.67;29.70;;;;;;;;;;5012138;28;20515;-72
2021/03/27 01:49:00;;;;;;;50.20;31.50;;;;;;;;;;5012426;28;20551;-67
2021/03/27 01:51:26;;;;;;;48.08;30.77;;;;;;;;;;5012317;28;20385;-67
2021/03/27 01:54:07;;;;;;;52.72;33.78;;;;;;;;;;5012013;28;20091;-68
2021/03/27 01:56:49;;;;;;;52.90;34.45;;;;;;;;;;5011978;28;20038;-69
2021/03/27 01:59:28;;;;;;;46.80;29.27;;;179.70;1740.80;;;;;;5012217;28;20014;-66
2021/03/27 02:02:10;;;;;;;49.03;30.63;;;179.70;1766.40;;;;;;5012172;28;20104;-69
2021/03/27 02:05:06;;;;;;;47.78;28.80;;;179.60;1817.60;;;;;;5012246;28;20037;-67
2021/03/27 02:07:58;;;;;;;43.70;29.02;;;179.50;1843.20;;;;;;5010674;28;20064;-75
2021/03/27 02:10:42;;;;;;;42.60;29.23;;;179.70;1817.60;;;;;;5010849;28;20036;-73
2021/03/27 02:13:28;;;;;;;41.35;28.33;;;179.70;1792.00;;;;;;5011274;28;20030;-69
2021/03/27 02:16:01;;;;;;;47.67;31.95;;;179.70;1792.00;;;;;;5012137;28;20034;-70
2021/03/27 02:18:37;;;;;;;48.00;28.90;;;180.00;1740.80;;;;;;5012130;28;20028;-74
2021/03/27 02:21:06;;;;;;;43.65;28.70;;;179.80;1766.40;;;;;;4998520;28;20026;-74
2021/03/27 02:24:01;;;;;;;46.58;30.98;;;180.00;1740.80;;;;;;5011983;28;20492;-74
2021/03/27 02:27:01;;;;;;;44.00;28.48;;;179.90;1766.40;;;;;;4999321;28;20369;-68
2021/03/27 02:29:48;;;;;;;41.25;27.30;;;179.90;1740.80;;;;;;5011865;28;20018;-68
2021/03/27 02:32:42;;;;;;;41.10;27.98;;;180.00;1715.20;;;;;;5011744;28;20543;-68
2021/03/27 02:35:45;;;;;;;42.90;29.60;;;204.80;1689.60;;;;;;5011959;28;20030;-68
2021/03/27 02:38:28;;;;;;;48.10;30.33;;;180.10;1740.80;;;;;;5014393;28;20026;-72
2021/03/27 02:41:01;;;;;;;42.55;27.13;;;180.00;1766.40;;;;;;5011447;28;20115;-66
2021/03/27 02:43:45;;;;;;;44.13;28.70;;;180.00;1766.40;;;;;;5011640;28;20396;-70
2021/03/27 02:46:25;;;;;;;41.17;28.60;;;180.00;1766.40;;;;;;5011583;28;20108;-69
2021/03/27 02:48:51;;;;;;;44.90;29.45;;;179.80;1792.00;;;;;;5002048;28;20104;-68
2021/03/27 02:51:25;;;;;;;52.20;31.02;;;179.80;1792.00;;;;;;5015355;28;20133;-73
2021/03/27 02:54:15;;;;;;;47.78;30.38;;;180.00;1740.80;;;;;;5001900;28;20087;-68
2021/03/27 02:57:06;;;;;;;42.78;29.30;;;179.80;1766.40;;;;;;5015013;28;20073;-67
2021/03/27 02:59:56;;;;;;;40.10;26.40;;;179.80;1740.80;;;;;;5015375;28;20037;-73
2021/03/27 03:02:44;;;;;;;49.50;30.45;;;179.40;1817.60;;;;;;5001953;28;20340;-70
2021/03/27 03:05:40;;;;;;;44.58;27.83;;;179.60;1843.20;;;;;;5013698;28;20029;-67
2021/03/27 03:08:18;;;;;;;44.70;28.10;;;;;;;;;;5015271;28;20084;-68
2021/03/27 03:10:44;;;;;;;48.05;28.08;;;;;;;;;;5015348;28;20551;-66
2021/03/27 03:13:16;;;;;;;49.85;31.23;;;;;;;;;;5015256;28;20108;-69
2021/03/27 03:15:51;;;;;;;48.53;29.88;;;;;;;;;;5014550;28;20488;-69
2021/03/27 03:18:21;;;;;;;55.33;32.95;;;;;;;;;;5014831;28;20025;-69
2021/03/27 03:20:58;;;;;;;36.97;26.48;;;;;;;;;;5014581;28;20102;-72
2021/03/27 03:23:42;;;;;;;41.35;27.17;;;;;;;;;;5014726;28;20114;-72
2021/03/27 03:26:35;;;;;;;41.80;26.95;;;;;;;;;;5014547;28;20049;-71
2021/03/27 03:29:04;;;;;;;45.53;29.83;;;;;;;;;;5011107;28;20048;-71
2021/03/27 03:31:40;;;;;;;47.38;31.00;;;;;;;;;;5014712;28;20025;-72
2021/03/27 03:34:14;;;;;;;51.72;33.05;;;;;;;;;;5014536;28;20097;-71
2021/03/27 03:36:46;;;;;;;54.38;34.63;;;;;;;;;;5003449;28;20061;-75
2021/03/27 03:39:18;;;;;;;42.05;29.40;;;;;;;;;;5014494;28;20038;-68
2021/03/27 03:41:48;;;;;;;56.25;35.58;;;;;;;;;;5014236;28;20025;-73
2021/03/27 03:44:14;;;;;;;59.08;36.92;;;;;;;;;;5014404;28;20423;-76
2021/03/27 03:46:46;;;;;;;53.25;31.85;;;;;;;;;;5014355;28;20053;-68
2021/03/27 03:49:12;;;;;;;49.22;32.00;;;;;;;;;;5014429;28;20049;-69
2021/03/27 03:51:38;;;;;;;49.15;32.95;;;;;;;;;;5014248;28;20754;-68
2021/03/27 03:54:25;;;;;;;47.85;30.90;;;;;;;;;;5014142;28;20042;-73
2021/03/27 03:56:58;;;;;;;44.95;30.88;;;;;;;;;;5013904;28;20124;-71
2021/03/27 03:59:39;;;;;;;52.15;33.38;;;;;;;;;;5013407;28;20022;-68
2021/03/27 04:02:14;;;;;;;54.60;33.70;;;;;;;;;;5014019;28;20026;-72
2021/03/27 04:04:43;;;;;;;56.30;33.85;;;;;;;;;;5005876;28;20018;-68
2021/03/27 04:07:12;;;;;;;55.45;34.92;;;;;;;;;;5014302;28;20029;-68
2021/03/27 04:09:50;;;;;;;52.67;33.38;;;;;;;;;;5014206;28;20028;-68
2021/03/27 04:12:16;;;;;;;48.45;29.58;;;;;;;;;;5013921;28;20026;-72
2021/03/27 04:14:48;;;;;;;44.92;29.77;;;;;;;;;;5013594;28;20101;-70
2021/03/27 04:17:20;;;;;;;46.03;30.58;;;;;;;;;;5013792;28;20825;-72
2021/03/27 04:19:49;;;;;;;44.05;30.25;;;;;;;;;;5013672;28;20026;-76
2021/03/27 04:22:30;;;;;;;37.63;26.50;;;;;;;;;;5013744;28;20476;-76
2021/03/27 04:25:05;;;;;;;40.63;27.67;;;;;;;;;;5013558;28;20034;-77
2021/03/27 04:27:32;;;;;;;46.95;29.70;;;;;;;;;;5013357;28;20072;-73
2021/03/27 04:30:02;;;;;;;35.65;25.67;;;;;;;;;;5013390;28;20448;-74
2021/03/27 04:32:34;;;;;;;48.83;33.28;;;;;;;;;;5012261;28;20033;-69
2021/03/27 04:35:09;;;;;;;48.20;31.75;;;;;;;;;;5013423;28;20014;-71
2021/03/27 04:38:04;;;;;;;40.33;27.90;;;;;;;;;;5013300;28;20033;-70
2021/03/27 04:40:51;;;;;;;41.10;28.08;;;;;;;;;;4945191;28;20039;-70
2021/03/27 04:43:23;;;;;;;48.88;29.08;;;;;;;;;;4952660;28;20058;-69
2021/03/27 04:45:52;;;;;;;37.58;26.15;;;;;;;;;;4952676;29;20033;-71
2021/03/27 04:48:18;;;;;;;39.95;26.90;;;;;;;;;;4936509;29;20098;-75
2021/03/27 04:50:44;;;;;;;39.55;27.08;;;;;;;;;;4952776;29;20066;-69
2021/03/27 04:53:20;;;;;;;45.78;26.20;;;;;;;;;;4952282;29;20066;-70
2021/03/27 04:56:06;;;;;;;38.83;26.90;;;;;;;;;;4952257;28;20442;-67
2021/03/27 04:58:41;;;;;;;42.17;27.38;;;;;;;;;;4952046;28;20126;-67
2021/03/27 05:01:26;;;;;;;43.78;28.85;;;;;;;;;;4952076;28;20479;-70
2021/03/27 05:03:52;;;;;;;43.45;27.48;;;;;;;;;;4952629;28;20126;-68
2021/03/27 05:06:33;;;;;;;53.70;31.88;;;;;;;;;;4951755;28;20577;-70
2021/03/27 05:09:17;;;;;;;51.30;34.75;;;;;;;;;;4952154;28;20093;-68
2021/03/27 05:12:02;;;;;;;74.18;41.72;;;;;;;;;;4951273;28;20031;-69
2021/03/27 05:14:28;;;;;;;53.75;34.65;;;;;;;;;;4951621;28;20046;-73
2021/03/27 05:16:58;;;;;;;57.65;36.30;;;;;;;;;;4982218;28;20046;-68
2021/03/27 05:19:37;;;;;;;55.63;35.40;;;;;;;;;;5012707;28;20018;-69
2021/03/27 05:22:08;;;;;;;60.28;36.60;;;;;;;;;;5012053;28;20045;-68
2021/03/27 05:24:54;;;;;;;53.70;34.13;;;;;;;;;;5011993;28;20481;-69
2021/03/27 05:27:29;;;;;;;82.20;49.70;;;;;;;;;;5011827;28;20033;-67
2021/03/27 05:30:14;;;;;;;53.35;35.53;;;;;;;;;;5011948;28;20018;-72
2021/03/27 05:33:07;;;;;;;61.85;41.40;;;179.80;1740.80;;;;;;5011819;28;20030;-78
2021/03/27 05:35:53;;;;;;;67.45;41.53;;;179.70;1766.40;;;;;;5012527;28;20052;-72
2021/03/27 05:38:37;;;;;;;71.95;42.33;;;;;;;;;;5010718;28;20100;-70
2021/03/27 05:41:35;;;;;;;72.97;42.22;;;154.20;1920.00;;;;;;5012177;28;20550;-69
2021/03/27 05:44:32;;;;;;;84.82;50.72;;;154.10;1971.20;;;;;;5001844;28;20022;-74
2021/03/27 05:47:25;;;;;;;66.13;42.30;;;154.00;1971.20;;;;;;5012593;28;20466;-75
2021/03/27 05:50:24;;;;;;;73.18;40.35;;;154.30;1945.60;;;;;;5012066;28;20033;-74
2021/03/27 05:53:13;;;;;;;48.83;31.02;;;179.20;1920.00;;;;;;5012584;28;20097;-70
2021/03/27 05:56:00;;;;;;;50.67;32.90;;;179.20;1920.00;;;;;;4999073;28;20072;-69
2021/03/27 05:58:41;;;;;;;51.45;31.67;;;154.50;1945.60;;;;;;5011964;28;20044;-68
2021/03/27 06:01:25;;;;;;;57.65;34.75;;;;;;;;;;5012449;28;20480;-69
2021/03/27 06:03:58;;;;;;;55.40;35.55;;;;;;;;;;5011194;28;20025;-72
2021/03/27 06:06:42;;;;;;;62.95;40.47;;;;;;;;;;5012411;28;20022;-73
2021/03/27 06:09:26;;;;;;;61.38;38.75;;;204.80;1792.00;;;;;;5012505;28;20152;-74
2021/03/27 06:12:29;;;;;;;63.97;40.28;;;205.00;1792.00;;;;;;5012319;28;20030;-74
2021/03/27 06:15:17;;;;;;;78.15;43.22;;;205.10;1766.40;;;;;;5012063;28;20097;-68
2021/03/27 06:17:45;;;;;;;55.42;37.47;;;205.00;1792.00;;;;;;5012218;28;20153;-71
2021/03/27 06:20:14;;;;;;;59.17;36.35;;;205.00;1792.00;;;;;;5012376;28;20026;-75
2021/03/27 06:22:45;;;;;;;56.00;36.88;;;205.00;1817.60;;;;;;5013333;28;20045;-69
2021/03/27 06:25:23;;;;;;;62.22;38.75;;;205.10;1817.60;;;;;;5016110;28;20381;-75
2021/03/27 06:28:13;;;;;;;69.63;40.20;;;205.30;1792.00;;;;;;5015362;28;20025;-70
2021/03/27 06:30:45;;;;;;;74.32;47.85;;;205.70;1766.40;;;;;;5015515;28;20044;-69
2021/03/27 06:33:32;;;;;;;89.80;50.10;;;205.70;1766.40;;;;;;5015747;28;20084;-69
2021/03/27 06:36:21;;;;;;;133.35;83.28;;;205.60;1766.40;;;;;;5015469;28;20026;-76
2021/03/27 06:39:08;;;;;;;102.95;63.53;;;230.40;1766.40;;;;;;5015701;28;20044;-73
2021/03/27 06:41:58;;;;;;;98.50;60.60;;;230.60;1766.40;;;;;;5002522;28;20080;-71
2021/03/27 06:44:42;;;;;;;89.20;52.70;;;230.70;1740.80;;;;;;5015015;28;20057;-73
2021/03/27 06:47:36;;;;;;;83.55;53.60;;;230.80;1740.80;;;;;;5015306;28;20014;-75
2021/03/27 06:50:46;;;;;;;76.40;49.28;;;230.80;1740.80;;;;;;5015213;28;20033;-73
2021/03/27 06:53:22;;;;;;;77.00;45.20;;;231.00;1715.20;;;;;;5015110;28;20092;-74
2021/03/27 06:56:09;;;;;;;83.93;48.05;;;231.10;1715.20;;;;;;5014980;28;20064;-70
2021/03/27 06:58:56;;;;;;;105.53;56.53;;;256.30;1689.60;;;;;;5014879;28;20022;-75
2021/03/27 07:01:59;;;;;;;103.10;63.53;;;256.90;1587.20;;;;;;5014920;28;20022;-74
2021/03/27 07:04:28;;;;;;;105.35;67.85;;;281.80;1561.60;;;;;;5019503;28;20026;-75
2021/03/27 07:07:04;;;;;;;117.68;71.35;;;282.00;1536.00;;;;;;5014763;28;20397;-73
2021/03/27 07:10:04;;;;;;;109.97;70.60;;;282.10;1536.00;;;;;;5015141;28;20050;-74
2021/03/27 07:13:03;;;;;;;105.57;66.35;;;282.30;1536.00;;;;;;5014658;28;20076;-75
2021/03/27 07:15:46;;;;;;;106.50;64.63;;;307.40;1510.40;;;;;;5014694;28;20053;-74
2021/03/27 07:18:18;;;;;;;97.97;63.00;;;307.80;1484.80;;;;;;5014976;28;20118;-74
2021/03/27 07:20:43;;;;;;;;;;;308.00;1433.60;;;;;;5015318;28;20022;-72
2021/03/27 07:23:28;;;;;;;117.13;71.88;;;332.80;1433.60;;;;;;5014996;28;19909;-72
2021/03/27 07:26:41;;;;;;;125.55;81.45;;;332.90;1433.60;;;;;;5014609;28;20507;-73
2021/03/27 07:29:37;;;;;;;138.60;89.70;;;332.90;1459.20;;;;;;5014872;28;20026;-77
2021/03/27 07:32:17;;;;;;;128.52;80.15;;;333.20;1433.60;;;;;;5014740;28;20022;-74
2021/03/27 07:35:25;;;;;;;120.43;77.57;;;333.40;1408.00;;;;;;5013447;28;20021;-71
2021/03/27 07:38:08;;;;;;;123.18;81.22;;;333.70;1382.40;;;;;;5014521;28;20048;-73
2021/03/27 07:40:53;;;;;;;120.95;81.28;;;358.50;1356.80;;;;;;5014661;28;20052;-71
2021/03/27 07:43:37;;;;;;;129.20;87.35;;;358.60;1331.20;;;;;;5014325;28;20029;-74
2021/03/27 07:46:37;;;;;;;110.22;72.40;;;358.60;1331.20;;;;;;5014289;28;20389;-70
2021/03/27 07:49:39;;;;;;;113.30;68.78;;;358.90;1305.60;;;;;;5003459;28;20058;-75
2021/03/27 07:52:14;;;;;;;99.40;63.42;;;359.10;1305.60;;;;;;5014326;28;20022;-71
2021/03/27 07:55:04;;;;;;;90.43;61.25;;;384.00;1280.00;;;;;;5014235;28;20100;-69
2021/03/27 07:57:59;;;;;;;87.53;57.30;;;384.10;1254.40;;;;;;5002791;28;20092;-71
2021/03/27 08:00:43;;;;;;;86.53;57.53;;;384.30;1228.80;;;;;;5001355;28;20073;-77
2021/03/27 08:03:30;;;;;;;115.20;63.35;;;384.40;1228.80;;;;;;5014348;28;20030;-76
2021/03/27 08:06:14;;;;;;;124.05;67.50;;;384.60;1228.80;;;;;;5014184;28;20024;-70
2021/03/27 08:09:27;;;;;;;84.32;54.45;;;384.80;1203.20;;;;;;5013851;28;20038;-70
2021/03/27 08:12:02;;;;;;;100.97;57.30;;;384.90;1177.60;;;;;;4953239;29;20557;-73
2021/03/27 08:14:49;;;;;;;92.60;52.22;;;409.70;1203.20;;;;;;4953254;29;20122;-74
2021/03/27 08:17:23;;;;;;;103.20;58.13;;;409.70;1177.60;;;;;;4953243;29;20454;-71
2021/03/27 08:19:55;;;;;;;79.57;48.80;;;410.00;1177.60;;;;;;4953383;29;20545;-77
2021/03/27 08:23:11;;;;;;;79.68;49.55;;;410.50;1177.60;;;;;;4953059;28;20046;-70
2021/03/27 08:25:37;;;;;;;205.45;118.85;;;435.30;1152.00;;;;;;4896097;29;20456;-74
2021/03/27 08:28:37;;;;;;;132.20;69.57;;;435.40;1126.40;;;;;;4896035;29;21076;-70
2021/03/27 08:31:20;;;;;;;126.10;64.40;;;435.60;1100.80;;;;;;4896103;29;20551;-70
2021/03/27 08:34:07;;;;;;;91.95;54.22;;;435.80;1075.20;;;;;;4896001;29;20029;-71
2021/03/27 08:37:07;;;;;;;74.10;35.70;;;460.80;1126.40;;;;;;4896093;29;20076;-72
2021/03/27 08:39:36;;;;;;;74.45;46.17;;;461.00;1049.60;;;;;;4896002;29;20595;-70
2021/03/27 08:42:15;;;;;;;91.45;53.85;;;461.40;1024.00;;;;;;4895776;29;20028;-71
2021/03/27 08:44:44;;;;;;;83.68;53.33;;;461.60;1075.20;;;;;;4895498;29;20029;-71
2021/03/27 08:47:17;;;;;;;142.48;74.30;;;461.70;1075.20;;;;;;4896791;29;20131;-71
2021/03/27 08:50:20;;;;;;;112.22;58.78;;;461.70;1075.20;;;;;;4933530;29;20033;-73
2021/03/27 08:53:04;;;;;;;67.07;42.38;;;486.50;1049.60;;;;;;4933856;29;20118;-78
2021/03/27 08:55:45;;;;;;;64.32;43.58;;;486.70;1024.00;;;;;;4917300;29;20058;-73
2021/03/27 08:58:29;;;;;;;;;;;486.80;1024.00;;;;;;4934053;29;20050;-72
2021/03/27 09:01:04;;;;;;;60.55;39.10;;;487.20;998.40;;;;;;4972989;28;19912;-74
2021/03/27 09:03:51;;;;;;;72.07;43.22;;;487.20;998.40;;;;;;5012902;28;20022;-72
2021/03/27 09:06:29;;;;;;;64.45;35.35;;;487.30;998.40;;;;;;5013196;28;20025;-73
2021/03/27 09:09:15;;;;;;;44.92;15.43;;;512.20;947.20;;;;;;5012731;28;20017;-72
2021/03/27 09:12:29;;;;;;;40.65;21.73;;;512.60;793.60;;;;;;5013107;28;20112;-77
2021/03/27 09:15:13;;;;;;;21.40;13.82;;;512.90;768.00;;;;;;4963137;28;20052;-71
2021/03/27 09:18:37;;;;;;;30.20;15.65;;;537.70;768.00;;;;;;4957975;28;20093;-74
2021/03/27 09:21:26;;;;;;;26.05;13.35;;;538.00;768.00;;;;;;4914251;29;20439;-76
2021/03/27 09:23:59;;;;;;;28.83;14.38;;;538.30;742.40;;;;;;4913940;29;20674;-74
2021/03/27 09:26:57;;;;;;;28.75;14.55;;;538.50;742.40;;;;;;4914152;29;20566;-77
2021/03/27 09:29:40;;;;;;;24.27;12.55;;;563.40;742.40;;;;;;4839291;29;20090;-70
2021/03/27 09:32:25;;;;;;;34.28;18.25;;;563.70;716.80;;;;;;4839602;29;20072;-78
2021/03/27 09:35:37;;;;;;;28.33;13.20;;;564.00;716.80;;;;;;4839409;29;20043;-74
2021/03/27 09:38:28;;;;;;;30.60;14.57;;;589.10;691.20;;;;;;4785072;30;20114;-75
2021/03/27 09:41:09;;;;;;;19.40;10.77;;;691.80;486.40;;;;;;4784979;30;20395;-71
2021/03/27 09:43:43;;;;;;;23.98;11.40;;;819.30;435.20;;;;;;4785027;30;20047;-70
2021/03/27 09:46:27;;;;;;;33.65;15.43;;;;;;;;;;4784728;29;20411;-70
2021/03/27 09:49:08;;;;;;;20.08;10.70;;;;;;;;;;4785075;30;20514;-69
2021/03/27 09:51:52;;;;;;;14.20;9.25;;;921.70;332.80;;;;;;4773062;29;20607;-74
2021/03/27 09:54:32;;;;;;;39.55;14.13;;;947.30;281.60;;;;;;4784609;29;20083;-70
2021/03/27 09:57:07;;;;;;;22.23;10.95;;;947.40;281.60;;;;;;4813316;29;20050;-69
2021/03/27 09:59:43;;;;;;;17.15;8.70;;;947.90;281.60;;;;;;4820711;29;20529;-75
2021/03/27 10:02:37;;;;;;;44.17;27.30;;;973.00;307.20;;;;;;4821016;29;20057;-72
2021/03/27 10:05:21;;;;;;;18.33;10.25;;;998.50;332.80;;;;;;4838248;29;20044;-72
2021/03/27 10:07:50;;;;;;;22.65;10.50;;;;;;;;;;4913750;29;20028;-73
2021/03/27 10:10:36;;;;;;;11.60;9.20;;;1024.60;332.80;;;;;;4913474;29;20032;-76
2021/03/27 10:13:23;;;;;;;12.57;8.43;;;1024.20;332.80;;;;;;5003170;28;20117;-72
2021/03/27 10:15:53;;;;;;;13.23;10.38;;;973.10;307.20;;;;;;5011768;28;20046;-77
2021/03/27 10:18:34;;;;;;;78.43;42.72;;;921.80;332.80;;;;;;5011971;28;20044;-69
2021/03/27 10:21:20;;;;;;;18.83;15.30;;;947.60;281.60;;;;;;5011866;28;20477;-68
2021/03/27 10:24:11;;;;;;;13.88;9.82;;;973.10;307.20;;;;;;5011957;28;20069;-77
2021/03/27 10:27:00;;;;;;;14.65;10.55;;;972.80;307.20;;;;;;5011897;28;20249;-70
2021/03/27 10:29:41;;;;;;;11.13;9.13;;;973.70;307.20;;;;;;5011681;28;20477;-69
2021/03/27 10:32:31;;;;;;;17.00;8.65;;;999.20;332.80;;;;;;5012228;28;20073;-70
2021/03/27 10:35:27;;;;;;;9.57;7.22;;;1024.10;332.80;;;;;;5000859;28;20353;-76
2021/03/27 10:38:08;;;;;;;12.23;8.70;;;973.70;307.20;;;;;;5011724;28;20030;-75
2021/03/27 10:40:55;;;;;;;15.60;9.15;;;973.00;307.20;;;;;;5011926;28;20096;-76
2021/03/27 10:43:37;;;;;;;22.40;8.57;;;973.10;307.20;;;;;;5009911;28;20033;-69
2021/03/27 10:46:20;;;;;;;10.93;6.60;;;973.00;307.20;;;;;;5011602;28;20025;-70
2021/03/27 10:49:15;;;;;;;14.95;7.43;;;947.90;281.60;;;;;;4981088;28;20025;-70
2021/03/27 10:51:59;;;;;;;18.00;7.88;;;947.20;281.60;;;;;;5011729;28;20064;-76
2021/03/27 10:54:40;;;;;;;20.98;7.63;;;;;;;;;;5011599;28;20108;-69
2021/03/27 10:57:06;;;;;;;21.98;9.00;;;896.10;281.60;;;;;;5011521;28;20096;-76
2021/03/27 11:00:09;;;;;;;11.88;8.07;;;870.50;358.40;;;;;;5011719;28;20030;-68
2021/03/27 11:02:55;;;;;;;16.13;8.40;;;870.50;332.80;;;;;;5000174;28;20357;-75
2021/03/27 11:05:27;;;;;;;12.63;7.85;;;;;;;;;;5011238;28;20091;-69
2021/03/27 11:08:12;;;;;;;12.65;9.00;;;;;;;;;;5011693;28;20014;-75
2021/03/27 11:10:47;;;;;;;7.80;6.35;;;;;;;;;;5015119;28;20064;-75
2021/03/27 11:13:28;;;;;;;15.38;10.45;;;;;;;;;;5015075;28;20017;-74
2021/03/27 11:16:32;;;;;;;25.40;12.25;;;768.60;358.40;;;;;;5014459;28;20469;-74
2021/03/27 11:19:11;;;;;;;29.73;11.18;;;;;;;;;;5015044;28;20453;-72
2021/03/27 11:21:56;;;;;;;20.23;11.38;;;743.30;384.00;;;;;;5015292;28;20025;-69
2021/03/27 11:24:53;;;;;;;17.35;11.07;;;743.30;384.00;;;;;;5013713;28;20042;-73
2021/03/27 11:27:25;;;;;;;16.65;9.90;;;;;;;;;;5014744;28;20484;-68
2021/03/27 11:30:15;;;;;;;15.65;7.53;;;717.50;460.80;;;;;;5013276;28;20025;-69
2021/03/27 11:32:46;;;;;;;20.85;10.50;;;;;;;;;;5014675;28;20503;-71
2021/03/27 11:35:30;;;;;;;;;;;768.10;358.40;;;;;;5015472;28;20026;-76
2021/03/27 11:38:14;;;;;;;10.75;7.00;;;819.20;332.80;;;;;;5014572;28;19924;-71
2021/03/27 11:40:57;;;;;;;13.20;8.13;;;793.70;358.40;;;;;;5015032;28;20475;-75
2021/03/27 11:43:25;;;;;;;14.20;8.77;;;794.50;332.80;;;;;;5012731;28;20033;-75
2021/03/27 11:46:02;;;;;;;14.82;6.88;;;819.40;358.40;;;;;;5014346;28;20021;-73
2021/03/27 11:48:54;;;;;;;13.93;6.63;;;845.00;332.80;;;;;;5014334;28;20444;-71
2021/03/27 11:51:36;;;;;;;12.00;8.00;;;820.10;332.80;;;;;;5014560;28;20461;-72
2021/03/27 11:54:05;;;;;;;10.43;6.60;;;819.70;332.80;;;;;;5016964;28;20064;-72
2021/03/27 11:56:50;;;;;;;6.95;5.40;;;845.70;307.20;;;;;;5014138;28;20036;-76
2021/03/27 12:02:35;;;;;;;17.10;8.35;;;896.50;256.00;;;;;;5013963;28;20041;-76
2021/03/27 12:05:26;;;;;;;13.32;8.85;;;871.30;256.00;;;;;;5013757;28;20030;-70
2021/03/27 12:08:23;;;;;;;7.55;5.80;;;896.90;256.00;;;;;;5013871;28;20017;-71
2021/03/27 12:11:07;;;;;;;24.42;12.70;;;921.90;281.60;;;;;;5012298;28;20026;-71
2021/03/27 12:13:41;;;;;;;12.80;8.40;;;947.60;281.60;;;;;;5013480;28;20097;-72
2021/03/27 12:16:25;;;;;;;14.55;9.63;;;947.50;281.60;;;;;;5013382;28;20064;-75
2021/03/27 12:19:04;;;;;;;13.10;7.53;;;947.80;281.60;;;;;;5013527;28;20111;-70
2021/03/27 12:21:29;;;;;;;14.30;11.32;;;947.80;281.60;;;;;;5012920;28;20022;-76
2021/03/27 12:24:03;;;;;;;48.08;23.75;;;921.90;281.60;;;;;;5013426;28;20030;-73
2021/03/27 12:26:52;;;;;;;11.63;6.70;;;871.10;256.00;;;;;;5013415;28;20469;-71
2021/03/27 12:29:20;;;;;;;19.52;8.93;;;845.00;640.00;;;;;;5013458;28;20417;-73
2021/03/27 12:32:24;;;;;;;41.90;20.25;;;819.50;307.20;;;;;;5013379;28;20030;-72
2021/03/27 12:35:19;;;;;;;33.53;21.50;;;794.30;332.80;;;;;;5001176;28;20026;-75
2021/03/27 12:38:06;;;;;;;47.08;27.30;;;768.90;332.80;;;;;;5013118;28;20036;-74
2021/03/27 12:40:38;;;;;;;12.00;8.75;;;;;;;;;;5013442;28;20033;-71
2021/03/27 12:43:12;;;;;;;18.88;13.55;;;742.80;358.40;;;;;;5013016;28;20026;-71
2021/03/27 12:45:40;;;;;;;19.83;10.55;;;;;;;;;;5012875;28;20516;-72
2021/03/27 12:48:26;;;;;;;11.35;8.23;;;717.60;358.40;;;;;;5013138;28;20033;-74
2021/03/27 12:51:25;;;;;;;15.10;8.85;;;717.50;358.40;;;;;;4952898;29;20504;-76
2021/03/27 12:54:28;;;;;;;15.82;7.38;;;717.40;384.00;;;;;;4952364;29;20033;-70
2021/03/27 12:57:09;;;;;;;9.25;6.82;;;717.60;358.40;;;;;;4952284;29;20074;-75
2021/03/27 12:59:37;;;;;;;13.85;8.80;;;717.70;358.40;;;;;;4952335;29;20249;-69
2021/03/27 13:02:18;;;;;;;11.07;8.60;;;742.50;384.00;;;;;;4952546;29;20089;-74
2021/03/27 13:05:13;;;;;;;10.38;6.63;;;742.80;435.20;;;;;;4952294;29;20034;-74
2021/03/27 13:07:50;;;;;;;12.43;8.25;;;743.10;384.00;;;;;;4952249;29;20031;-70
2021/03/27 13:10:49;;;;;;;16.20;6.20;;;819.60;332.80;;;;;;4952327;28;20068;-71
2021/03/27 13:13:21;;;;;;;18.98;11.82;;;845.50;307.20;;;;;;4952326;29;20102;-70
2021/03/27 13:15:57;;;;;;;16.20;8.27;;;870.50;281.60;;;;;;4951742;29;20117;-72
2021/03/27 13:19:01;;;;;;;10.30;5.32;;;871.10;256.00;;;;;;4952375;29;20045;-76
2021/03/27 13:21:36;;;;;;;10.38;5.97;;;794.50;332.80;;;;;;4952091;29;20035;-76
2021/03/27 13:24:13;;;;;;;12.05;6.32;;;870.50;281.60;;;;;;4952096;28;20043;-71
2021/03/27 13:26:41;;;;;;;8.93;6.57;;;871.30;256.00;;;;;;4952200;28;20642;-73
2021/03/27 13:29:32;;;;;;;22.30;17.73;;;896.10;281.60;;;;;;5010299;28;20073;-70
2021/03/27 13:32:16;;;;;;;26.63;17.98;;;845.50;307.20;;;;;;5011449;28;20369;-70
2021/03/27 13:35:24;;;;;;;13.55;9.00;;;820.10;307.20;;;;;;4999476;28;20488;-72
2021/03/27 13:38:03;;;;;;;11.93;8.10;;;819.60;307.20;;;;;;5009324;28;20381;-71
2021/03/27 13:40:32;;;;;;;17.67;10.20;;;768.40;358.40;;;;;;5012206;28;20056;-69
2021/03/27 13:43:14;;;;;;;22.38;9.73;;;793.60;358.40;;;;;;5012088;28;20033;-69
2021/03/27 13:46:20;;;;;;;96.78;49.53;;;743.10;409.60;;;;;;5012658;28;20030;-69
2021/03/27 13:48:50;;;;;;;17.10;10.27;;;;;;;;;;4951943;29;20042;-72
2021/03/27 13:51:30;;;;;;;10.10;7.47;;;742.40;435.20;;;;;;4951763;28;20106;-70
2021/03/27 13:54:24;;;;;;;18.75;7.40;;;768.20;409.60;;;;;;4951452;29;20507;-76